sensor_id;sensor_type;location;lat;lon;timestamp;P1;durP1;ratioP1;P2;durP2;ratioP2
870;SDS011;422;51.280;7.236;2023-10-31T00:00:19;4.80;;;4.33;;
870;SDS011;422;51.280;7.236;2023-10-31T00:02:46;6.17;;;5.20;;
870;SDS011;422;51.280;7.236;2023-10-31T00:05:13;4.77;;;4.30;;
870;SDS011;422;51.280;7.236;2023-10-31T00:07:40;4.43;;;4.03;;
870;SDS011;422;51.280;7.236;2023-10-31T00:10:09;4.10;;;3.80;;
870;SDS011;422;51.280;7.236;2023-10-31T00:12:36;6.13;;;4.50;;
870;SDS011;422;51.280;7.236;2023-10-31T00:15:05;3.67;;;3.37;;
870;SDS011;422;51.280;7.236;2023-10-31T00:17:32;4.67;;;4.27;;
870;SDS011;422;51.280;7.236;2023-10-31T00:19:59;5.17;;;4.70;;
870;SDS011;422;51.280;7.236;2023-10-31T00:22:26;4.60;;;4.20;;
870;SDS011;422;51.280;7.236;2023-10-31T00:24:54;4.33;;;3.93;;
870;SDS011;422;51.280;7.236;2023-10-31T00:27:22;4.30;;;3.90;;
870;SDS011;422;51.280;7.236;2023-10-31T00:29:50;4.30;;;3.90;;
870;SDS011;422;51.280;7.236;2023-10-31T00:32:17;3.60;;;3.30;;
870;SDS011;422;51.280;7.236;2023-10-31T00:34:44;4.00;;;3.60;;
870;SDS011;422;51.280;7.236;2023-10-31T00:37:11;3.77;;;3.40;;
870;SDS011;422;51.280;7.236;2023-10-31T00:39:39;3.50;;;3.20;;
870;SDS011;422;51.280;7.236;2023-10-31T00:42:06;3.20;;;2.80;;
870;SDS011;422;51.280;7.236;2023-10-31T00:44:35;4.17;;;3.30;;
870;SDS011;422;51.280;7.236;2023-10-31T00:47:02;4.17;;;3.17;;
870;SDS011;422;51.280;7.236;2023-10-31T00:49:30;6.50;;;3.60;;
870;SDS011;422;51.280;7.236;2023-10-31T00:51:57;4.03;;;3.63;;
870;SDS011;422;51.280;7.236;2023-10-31T00:54:24;4.63;;;3.80;;
870;SDS011;422;51.280;7.236;2023-10-31T00:56:52;4.60;;;4.20;;
870;SDS011;422;51.280;7.236;2023-10-31T00:59:19;5.10;;;4.60;;
870;SDS011;422;51.280;7.236;2023-10-31T01:01:47;4.87;;;4.37;;
870;SDS011;422;51.280;7.236;2023-10-31T01:04:14;4.63;;;4.23;;
870;SDS011;422;51.280;7.236;2023-10-31T01:06:42;4.37;;;3.97;;
870;SDS011;422;51.280;7.236;2023-10-31T01:09:09;5.07;;;4.60;;
870;SDS011;422;51.280;7.236;2023-10-31T01:11:38;5.03;;;4.63;;
870;SDS011;422;51.280;7.236;2023-10-31T01:14:05;6.17;;;5.67;;
870;SDS011;422;51.280;7.236;2023-10-31T01:16:32;5.80;;;5.30;;
870;SDS011;422;51.280;7.236;2023-10-31T01:19:01;5.67;;;5.10;;
870;SDS011;422;51.280;7.236;2023-10-31T01:21:29;5.93;;;5.43;;
870;SDS011;422;51.280;7.236;2023-10-31T01:23:56;6.33;;;5.73;;
870;SDS011;422;51.280;7.236;2023-10-31T01:26:24;6.10;;;5.50;;
870;SDS011;422;51.280;7.236;2023-10-31T01:28:51;6.43;;;5.80;;
870;SDS011;422;51.280;7.236;2023-10-31T01:31:18;5.13;;;4.63;;
870;SDS011;422;51.280;7.236;2023-10-31T01:33:45;4.80;;;4.30;;
870;SDS011;422;51.280;7.236;2023-10-31T01:36:14;3.87;;;3.57;;
870;SDS011;422;51.280;7.236;2023-10-31T01:38:43;7.00;;;3.70;;
870;SDS011;422;51.280;7.236;2023-10-31T01:41:11;4.53;;;3.97;;
870;SDS011;422;51.280;7.236;2023-10-31T01:43:38;4.63;;;3.70;;
870;SDS011;422;51.280;7.236;2023-10-31T01:46:05;4.20;;;3.70;;
870;SDS011;422;51.280;7.236;2023-10-31T01:48:33;5.53;;;3.93;;
870;SDS011;422;51.280;7.236;2023-10-31T01:51:02;4.27;;;3.87;;
870;SDS011;422;51.280;7.236;2023-10-31T01:53:32;4.23;;;3.53;;
870;SDS011;422;51.280;7.236;2023-10-31T01:56:01;4.83;;;3.53;;
870;SDS011;422;51.280;7.236;2023-10-31T01:58:29;5.80;;;4.13;;
870;SDS011;422;51.280;7.236;2023-10-31T02:01:00;6.00;;;3.90;;
870;SDS011;422;51.280;7.236;2023-10-31T02:03:28;5.90;;;4.03;;
870;SDS011;422;51.280;7.236;2023-10-31T02:05:55;6.27;;;4.10;;
870;SDS011;422;51.280;7.236;2023-10-31T02:08:23;5.03;;;3.97;;
870;SDS011;422;51.280;7.236;2023-10-31T02:10:52;6.77;;;4.67;;
870;SDS011;422;51.280;7.236;2023-10-31T02:13:19;5.33;;;4.73;;
870;SDS011;422;51.280;7.236;2023-10-31T02:15:46;6.23;;;5.17;;
870;SDS011;422;51.280;7.236;2023-10-31T02:18:14;6.47;;;5.13;;
870;SDS011;422;51.280;7.236;2023-10-31T02:20:41;6.97;;;5.43;;
870;SDS011;422;51.280;7.236;2023-10-31T02:23:10;7.17;;;6.47;;
870;SDS011;422;51.280;7.236;2023-10-31T02:25:37;8.50;;;6.80;;
870;SDS011;422;51.280;7.236;2023-10-31T02:28:04;9.00;;;7.60;;
870;SDS011;422;51.280;7.236;2023-10-31T02:30:31;8.83;;;8.03;;
870;SDS011;422;51.280;7.236;2023-10-31T02:32:58;11.30;;;8.20;;
870;SDS011;422;51.280;7.236;2023-10-31T02:35:27;10.40;;;8.53;;
870;SDS011;422;51.280;7.236;2023-10-31T02:37:54;13.60;;;11.53;;
870;SDS011;422;51.280;7.236;2023-10-31T02:40:23;13.60;;;11.43;;
870;SDS011;422;51.280;7.236;2023-10-31T02:42:50;16.77;;;13.07;;
870;SDS011;422;51.280;7.236;2023-10-31T02:45:17;13.47;;;12.10;;
870;SDS011;422;51.280;7.236;2023-10-31T02:47:44;13.30;;;11.07;;
870;SDS011;422;51.280;7.236;2023-10-31T02:50:12;12.60;;;10.70;;
870;SDS011;422;51.280;7.236;2023-10-31T02:52:39;14.10;;;12.60;;
870;SDS011;422;51.280;7.236;2023-10-31T02:55:06;14.07;;;12.67;;
870;SDS011;422;51.280;7.236;2023-10-31T02:57:35;17.00;;;12.87;;
870;SDS011;422;51.280;7.236;2023-10-31T03:00:02;16.00;;;12.97;;
870;SDS011;422;51.280;7.236;2023-10-31T03:02:30;15.37;;;12.23;;
870;SDS011;422;51.280;7.236;2023-10-31T03:04:57;14.03;;;12.53;;
870;SDS011;422;51.280;7.236;2023-10-31T03:07:24;13.70;;;10.70;;
870;SDS011;422;51.280;7.236;2023-10-31T03:09:51;13.03;;;11.47;;
870;SDS011;422;51.280;7.236;2023-10-31T03:12:19;12.83;;;10.47;;
870;SDS011;422;51.280;7.236;2023-10-31T03:14:48;15.73;;;11.47;;
870;SDS011;422;51.280;7.236;2023-10-31T03:17:15;12.87;;;11.43;;
870;SDS011;422;51.280;7.236;2023-10-31T03:19:42;11.63;;;10.43;;
870;SDS011;422;51.280;7.236;2023-10-31T03:22:09;12.33;;;10.77;;
870;SDS011;422;51.280;7.236;2023-10-31T03:24:36;11.30;;;9.53;;
870;SDS011;422;51.280;7.236;2023-10-31T03:27:03;10.50;;;9.40;;
870;SDS011;422;51.280;7.236;2023-10-31T03:29:30;9.20;;;8.30;;
870;SDS011;422;51.280;7.236;2023-10-31T03:31:59;10.30;;;8.50;;
870;SDS011;422;51.280;7.236;2023-10-31T03:34:26;11.60;;;8.53;;
870;SDS011;422;51.280;7.236;2023-10-31T03:36:53;14.17;;;8.33;;
870;SDS011;422;51.280;7.236;2023-10-31T03:39:20;10.50;;;8.67;;
870;SDS011;422;51.280;7.236;2023-10-31T03:41:47;9.33;;;8.37;;
870;SDS011;422;51.280;7.236;2023-10-31T03:44:15;10.13;;;8.53;;
870;SDS011;422;51.280;7.236;2023-10-31T03:46:42;11.10;;;8.43;;
870;SDS011;422;51.280;7.236;2023-10-31T03:49:10;9.53;;;8.53;;
870;SDS011;422;51.280;7.236;2023-10-31T03:51:37;8.13;;;7.30;;
870;SDS011;422;51.280;7.236;2023-10-31T03:54:04;10.70;;;8.30;;
870;SDS011;422;51.280;7.236;2023-10-31T03:56:37;8.33;;;7.43;;
870;SDS011;422;51.280;7.236;2023-10-31T03:59:05;9.13;;;7.77;;
870;SDS011;422;51.280;7.236;2023-10-31T04:01:32;9.20;;;7.73;;
870;SDS011;422;51.280;7.236;2023-10-31T04:04:00;11.93;;;8.90;;
870;SDS011;422;51.280;7.236;2023-10-31T04:06:29;11.30;;;8.13;;
870;SDS011;422;51.280;7.236;2023-10-31T04:08:56;13.10;;;7.33;;
870;SDS011;422;51.280;7.236;2023-10-31T04:11:23;15.13;;;7.23;;
870;SDS011;422;51.280;7.236;2023-10-31T04:13:50;9.13;;;7.97;;
870;SDS011;422;51.280;7.236;2023-10-31T04:16:17;9.73;;;7.93;;
870;SDS011;422;51.280;7.236;2023-10-31T04:18:44;7.70;;;7.00;;
870;SDS011;422;51.280;7.236;2023-10-31T04:21:11;9.93;;;8.27;;
870;SDS011;422;51.280;7.236;2023-10-31T04:23:40;9.30;;;6.63;;
870;SDS011;422;51.280;7.236;2023-10-31T04:26:07;10.20;;;7.27;;
870;SDS011;422;51.280;7.236;2023-10-31T04:28:34;8.37;;;7.07;;
870;SDS011;422;51.280;7.236;2023-10-31T04:31:01;7.40;;;6.70;;
870;SDS011;422;51.280;7.236;2023-10-31T04:33:29;7.73;;;6.40;;
870;SDS011;422;51.280;7.236;2023-10-31T04:35:56;8.17;;;7.03;;
870;SDS011;422;51.280;7.236;2023-10-31T04:38:23;8.27;;;7.37;;
870;SDS011;422;51.280;7.236;2023-10-31T04:40:51;8.23;;;6.93;;
870;SDS011;422;51.280;7.236;2023-10-31T04:43:18;7.30;;;6.40;;
870;SDS011;422;51.280;7.236;2023-10-31T04:45:46;8.97;;;6.50;;
870;SDS011;422;51.280;7.236;2023-10-31T04:48:13;7.47;;;6.27;;
870;SDS011;422;51.280;7.236;2023-10-31T04:50:40;8.47;;;6.87;;
870;SDS011;422;51.280;7.236;2023-10-31T04:53:07;6.93;;;6.23;;
870;SDS011;422;51.280;7.236;2023-10-31T04:55:34;8.00;;;6.90;;
870;SDS011;422;51.280;7.236;2023-10-31T04:58:03;8.83;;;7.50;;
870;SDS011;422;51.280;7.236;2023-10-31T05:00:30;9.77;;;7.80;;
870;SDS011;422;51.280;7.236;2023-10-31T05:02:57;9.43;;;7.63;;
870;SDS011;422;51.280;7.236;2023-10-31T05:05:26;10.17;;;8.13;;
870;SDS011;422;51.280;7.236;2023-10-31T05:07:53;10.80;;;8.53;;
870;SDS011;422;51.280;7.236;2023-10-31T05:10:20;10.10;;;9.00;;
870;SDS011;422;51.280;7.236;2023-10-31T05:12:48;8.33;;;7.53;;
870;SDS011;422;51.280;7.236;2023-10-31T05:15:17;9.60;;;7.47;;
870;SDS011;422;51.280;7.236;2023-10-31T05:17:44;9.37;;;8.37;;
870;SDS011;422;51.280;7.236;2023-10-31T05:20:11;10.90;;;9.90;;
870;SDS011;422;51.280;7.236;2023-10-31T05:22:40;23.30;;;20.43;;
870;SDS011;422;51.280;7.236;2023-10-31T05:25:07;12.37;;;11.27;;
870;SDS011;422;51.280;7.236;2023-10-31T05:27:35;11.33;;;9.10;;
870;SDS011;422;51.280;7.236;2023-10-31T05:30:02;9.47;;;8.57;;
870;SDS011;422;51.280;7.236;2023-10-31T05:32:31;11.20;;;9.70;;
870;SDS011;422;51.280;7.236;2023-10-31T05:34:58;12.53;;;9.30;;
870;SDS011;422;51.280;7.236;2023-10-31T05:37:26;10.13;;;9.13;;
870;SDS011;422;51.280;7.236;2023-10-31T05:39:53;11.53;;;10.23;;
870;SDS011;422;51.280;7.236;2023-10-31T05:42:20;11.13;;;10.03;;
870;SDS011;422;51.280;7.236;2023-10-31T05:44:48;11.17;;;9.97;;
870;SDS011;422;51.280;7.236;2023-10-31T05:47:15;10.70;;;9.67;;
870;SDS011;422;51.280;7.236;2023-10-31T05:49:44;9.93;;;8.93;;
870;SDS011;422;51.280;7.236;2023-10-31T05:52:11;11.37;;;10.30;;
870;SDS011;422;51.280;7.236;2023-10-31T05:54:38;12.67;;;10.80;;
870;SDS011;422;51.280;7.236;2023-10-31T05:57:05;10.70;;;9.67;;
870;SDS011;422;51.280;7.236;2023-10-31T05:59:32;11.63;;;10.30;;
870;SDS011;422;51.280;7.236;2023-10-31T06:02:00;11.27;;;10.17;;
870;SDS011;422;51.280;7.236;2023-10-31T06:04:27;12.10;;;10.60;;
870;SDS011;422;51.280;7.236;2023-10-31T06:06:55;10.27;;;9.27;;
870;SDS011;422;51.280;7.236;2023-10-31T06:09:22;10.13;;;8.90;;
870;SDS011;422;51.280;7.236;2023-10-31T06:11:50;10.33;;;9.33;;
870;SDS011;422;51.280;7.236;2023-10-31T06:14:17;10.20;;;9.20;;
870;SDS011;422;51.280;7.236;2023-10-31T06:16:44;9.07;;;8.17;;
870;SDS011;422;51.280;7.236;2023-10-31T06:19:11;10.00;;;8.77;;
870;SDS011;422;51.280;7.236;2023-10-31T06:21:39;9.60;;;8.70;;
870;SDS011;422;51.280;7.236;2023-10-31T06:24:08;10.90;;;9.80;;
870;SDS011;422;51.280;7.236;2023-10-31T06:26:35;10.20;;;9.20;;
870;SDS011;422;51.280;7.236;2023-10-31T06:29:02;10.17;;;9.27;;
870;SDS011;422;51.280;7.236;2023-10-31T06:31:29;9.67;;;8.60;;
870;SDS011;422;51.280;7.236;2023-10-31T06:33:57;11.30;;;10.17;;
870;SDS011;422;51.280;7.236;2023-10-31T06:36:24;10.93;;;9.90;;
870;SDS011;422;51.280;7.236;2023-10-31T06:38:51;11.77;;;9.63;;
870;SDS011;422;51.280;7.236;2023-10-31T06:41:19;9.33;;;8.40;;
870;SDS011;422;51.280;7.236;2023-10-31T06:43:46;10.13;;;8.93;;
870;SDS011;422;51.280;7.236;2023-10-31T06:46:13;11.63;;;9.37;;
870;SDS011;422;51.280;7.236;2023-10-31T06:48:41;9.03;;;8.17;;
870;SDS011;422;51.280;7.236;2023-10-31T06:51:08;9.47;;;7.60;;
870;SDS011;422;51.280;7.236;2023-10-31T06:53:35;10.33;;;8.10;;
870;SDS011;422;51.280;7.236;2023-10-31T06:56:03;8.60;;;7.80;;
870;SDS011;422;51.280;7.236;2023-10-31T06:58:31;8.53;;;7.67;;
870;SDS011;422;51.280;7.236;2023-10-31T07:00:59;9.20;;;8.40;;
870;SDS011;422;51.280;7.236;2023-10-31T07:03:26;9.53;;;8.60;;
870;SDS011;422;51.280;7.236;2023-10-31T07:05:53;10.57;;;9.47;;
870;SDS011;422;51.280;7.236;2023-10-31T07:08:21;9.53;;;8.63;;
870;SDS011;422;51.280;7.236;2023-10-31T07:10:48;10.30;;;9.30;;
870;SDS011;422;51.280;7.236;2023-10-31T07:13:15;10.23;;;9.23;;
870;SDS011;422;51.280;7.236;2023-10-31T07:15:44;13.93;;;10.20;;
870;SDS011;422;51.280;7.236;2023-10-31T07:18:11;11.00;;;9.90;;
870;SDS011;422;51.280;7.236;2023-10-31T07:20:39;12.60;;;11.03;;
870;SDS011;422;51.280;7.236;2023-10-31T07:23:06;11.10;;;10.00;;
870;SDS011;422;51.280;7.236;2023-10-31T07:25:33;11.83;;;10.63;;
870;SDS011;422;51.280;7.236;2023-10-31T07:28:00;11.37;;;10.23;;
870;SDS011;422;51.280;7.236;2023-10-31T07:30:27;11.33;;;9.97;;
870;SDS011;422;51.280;7.236;2023-10-31T07:32:56;12.60;;;10.90;;
870;SDS011;422;51.280;7.236;2023-10-31T07:35:23;10.80;;;9.70;;
870;SDS011;422;51.280;7.236;2023-10-31T07:37:51;11.50;;;10.30;;
870;SDS011;422;51.280;7.236;2023-10-31T07:40:18;11.37;;;10.23;;
870;SDS011;422;51.280;7.236;2023-10-31T07:42:45;12.33;;;11.03;;
870;SDS011;422;51.280;7.236;2023-10-31T07:45:12;12.10;;;10.77;;
870;SDS011;422;51.280;7.236;2023-10-31T07:47:39;13.60;;;12.20;;
870;SDS011;422;51.280;7.236;2023-10-31T07:50:09;15.37;;;13.40;;
870;SDS011;422;51.280;7.236;2023-10-31T07:52:36;14.93;;;12.40;;
870;SDS011;422;51.280;7.236;2023-10-31T07:55:03;13.50;;;12.20;;
870;SDS011;422;51.280;7.236;2023-10-31T07:57:31;14.13;;;12.47;;
870;SDS011;422;51.280;7.236;2023-10-31T07:59:58;15.97;;;13.10;;
870;SDS011;422;51.280;7.236;2023-10-31T08:02:26;14.27;;;12.77;;
870;SDS011;422;51.280;7.236;2023-10-31T08:04:53;14.13;;;12.83;;
870;SDS011;422;51.280;7.236;2023-10-31T08:07:22;13.10;;;11.90;;
870;SDS011;422;51.280;7.236;2023-10-31T08:09:49;14.87;;;13.37;;
870;SDS011;422;51.280;7.236;2023-10-31T08:12:17;18.00;;;13.13;;
870;SDS011;422;51.280;7.236;2023-10-31T08:14:44;14.83;;;13.30;;
870;SDS011;422;51.280;7.236;2023-10-31T08:17:11;14.90;;;13.37;;
870;SDS011;422;51.280;7.236;2023-10-31T08:19:38;14.33;;;12.93;;
870;SDS011;422;51.280;7.236;2023-10-31T08:22:05;13.83;;;12.47;;
870;SDS011;422;51.280;7.236;2023-10-31T08:24:34;15.60;;;13.33;;
870;SDS011;422;51.280;7.236;2023-10-31T08:27:02;15.50;;;13.90;;
870;SDS011;422;51.280;7.236;2023-10-31T08:29:29;15.07;;;13.57;;
870;SDS011;422;51.280;7.236;2023-10-31T08:31:56;14.53;;;12.97;;
870;SDS011;422;51.280;7.236;2023-10-31T08:34:24;14.80;;;13.23;;
870;SDS011;422;51.280;7.236;2023-10-31T08:36:51;15.30;;;13.77;;
870;SDS011;422;51.280;7.236;2023-10-31T08:39:19;14.90;;;13.17;;
870;SDS011;422;51.280;7.236;2023-10-31T08:41:51;15.10;;;13.50;;
870;SDS011;422;51.280;7.236;2023-10-31T08:44:19;14.80;;;12.63;;
870;SDS011;422;51.280;7.236;2023-10-31T08:46:47;16.77;;;13.10;;
870;SDS011;422;51.280;7.236;2023-10-31T08:49:15;14.53;;;12.90;;
870;SDS011;422;51.280;7.236;2023-10-31T08:51:42;14.50;;;13.10;;
870;SDS011;422;51.280;7.236;2023-10-31T08:54:10;16.23;;;14.53;;
870;SDS011;422;51.280;7.236;2023-10-31T08:56:37;13.13;;;11.93;;
870;SDS011;422;51.280;7.236;2023-10-31T08:59:06;13.73;;;12.43;;
870;SDS011;422;51.280;7.236;2023-10-31T09:01:33;13.87;;;12.40;;
870;SDS011;422;51.280;7.236;2023-10-31T09:04:01;12.73;;;11.53;;
870;SDS011;422;51.280;7.236;2023-10-31T09:06:28;12.60;;;11.40;;
870;SDS011;422;51.280;7.236;2023-10-31T09:08:55;14.33;;;11.53;;
870;SDS011;422;51.280;7.236;2023-10-31T09:11:23;13.27;;;11.87;;
870;SDS011;422;51.280;7.236;2023-10-31T09:13:50;12.30;;;11.20;;
870;SDS011;422;51.280;7.236;2023-10-31T09:16:18;13.43;;;11.40;;
870;SDS011;422;51.280;7.236;2023-10-31T09:18:46;16.67;;;11.87;;
870;SDS011;422;51.280;7.236;2023-10-31T09:21:13;13.17;;;11.60;;
870;SDS011;422;51.280;7.236;2023-10-31T09:23:40;12.53;;;10.13;;
870;SDS011;422;51.280;7.236;2023-10-31T09:26:07;11.80;;;10.47;;
870;SDS011;422;51.280;7.236;2023-10-31T09:28:35;14.63;;;10.30;;
870;SDS011;422;51.280;7.236;2023-10-31T09:31:03;11.27;;;10.17;;
870;SDS011;422;51.280;7.236;2023-10-31T09:33:32;12.23;;;11.00;;
870;SDS011;422;51.280;7.236;2023-10-31T09:35:59;10.90;;;9.90;;
870;SDS011;422;51.280;7.236;2023-10-31T09:38:27;10.23;;;9.23;;
870;SDS011;422;51.280;7.236;2023-10-31T09:40:54;10.80;;;9.80;;
870;SDS011;422;51.280;7.236;2023-10-31T09:43:21;11.60;;;10.20;;
870;SDS011;422;51.280;7.236;2023-10-31T09:45:48;9.87;;;8.97;;
870;SDS011;422;51.280;7.236;2023-10-31T09:48:16;10.10;;;8.60;;
870;SDS011;422;51.280;7.236;2023-10-31T09:50:46;13.00;;;10.00;;
870;SDS011;422;51.280;7.236;2023-10-31T09:53:14;10.03;;;9.13;;
870;SDS011;422;51.280;7.236;2023-10-31T09:55:42;10.70;;;9.60;;
870;SDS011;422;51.280;7.236;2023-10-31T09:58:11;9.63;;;8.63;;
870;SDS011;422;51.280;7.236;2023-10-31T10:00:38;9.50;;;8.20;;
870;SDS011;422;51.280;7.236;2023-10-31T10:03:06;10.03;;;8.43;;
870;SDS011;422;51.280;7.236;2023-10-31T10:05:35;11.47;;;9.37;;
870;SDS011;422;51.280;7.236;2023-10-31T10:08:04;9.67;;;8.77;;
870;SDS011;422;51.280;7.236;2023-10-31T10:10:33;12.50;;;9.93;;
870;SDS011;422;51.280;7.236;2023-10-31T10:13:00;9.60;;;8.40;;
870;SDS011;422;51.280;7.236;2023-10-31T10:15:29;8.50;;;7.70;;
870;SDS011;422;51.280;7.236;2023-10-31T10:17:56;8.53;;;7.63;;
870;SDS011;422;51.280;7.236;2023-10-31T10:20:24;11.40;;;8.10;;
870;SDS011;422;51.280;7.236;2023-10-31T10:22:51;9.33;;;8.43;;
870;SDS011;422;51.280;7.236;2023-10-31T10:25:20;9.10;;;7.80;;
870;SDS011;422;51.280;7.236;2023-10-31T10:27:47;12.57;;;8.70;;
870;SDS011;422;51.280;7.236;2023-10-31T10:30:15;8.87;;;8.00;;
870;SDS011;422;51.280;7.236;2023-10-31T10:32:42;8.80;;;7.90;;
870;SDS011;422;51.280;7.236;2023-10-31T10:35:09;8.43;;;7.63;;
870;SDS011;422;51.280;7.236;2023-10-31T10:37:37;8.90;;;7.83;;
870;SDS011;422;51.280;7.236;2023-10-31T10:40:05;9.43;;;6.93;;
870;SDS011;422;51.280;7.236;2023-10-31T10:42:40;8.50;;;6.40;;
870;SDS011;422;51.280;7.236;2023-10-31T10:45:12;9.13;;;6.33;;
870;SDS011;422;51.280;7.236;2023-10-31T10:47:41;7.83;;;5.70;;
870;SDS011;422;51.280;7.236;2023-10-31T10:50:13;6.87;;;6.27;;
870;SDS011;422;51.280;7.236;2023-10-31T10:52:42;6.90;;;5.13;;
870;SDS011;422;51.280;7.236;2023-10-31T10:55:13;5.93;;;5.33;;
870;SDS011;422;51.280;7.236;2023-10-31T10:57:51;9.23;;;5.53;;
870;SDS011;422;51.280;7.236;2023-10-31T11:00:24;6.43;;;5.83;;
870;SDS011;422;51.280;7.236;2023-10-31T11:02:52;5.67;;;5.10;;
870;SDS011;422;51.280;7.236;2023-10-31T11:05:19;6.87;;;5.30;;
870;SDS011;422;51.280;7.236;2023-10-31T11:07:47;6.70;;;5.43;;
870;SDS011;422;51.280;7.236;2023-10-31T11:10:16;5.40;;;4.90;;
870;SDS011;422;51.280;7.236;2023-10-31T11:12:44;9.10;;;5.30;;
870;SDS011;422;51.280;7.236;2023-10-31T11:15:14;11.33;;;4.90;;
870;SDS011;422;51.280;7.236;2023-10-31T11:17:44;6.37;;;4.73;;
870;SDS011;422;51.280;7.236;2023-10-31T11:20:13;6.97;;;5.30;;
870;SDS011;422;51.280;7.236;2023-10-31T11:22:42;6.50;;;5.00;;
870;SDS011;422;51.280;7.236;2023-10-31T11:25:12;12.43;;;4.80;;
870;SDS011;422;51.280;7.236;2023-10-31T11:27:40;8.27;;;4.80;;
870;SDS011;422;51.280;7.236;2023-10-31T11:30:08;7.60;;;4.70;;
870;SDS011;422;51.280;7.236;2023-10-31T11:32:53;6.40;;;4.30;;
870;SDS011;422;51.280;7.236;2023-10-31T11:35:21;5.53;;;4.20;;
870;SDS011;422;51.280;7.236;2023-10-31T11:37:49;8.47;;;4.37;;
870;SDS011;422;51.280;7.236;2023-10-31T11:40:27;4.23;;;2.87;;
870;SDS011;422;51.280;7.236;2023-10-31T11:42:56;4.10;;;3.60;;
870;SDS011;422;51.280;7.236;2023-10-31T11:45:29;6.47;;;3.33;;
870;SDS011;422;51.280;7.236;2023-10-31T11:47:58;5.60;;;3.10;;
870;SDS011;422;51.280;7.236;2023-10-31T11:50:25;10.50;;;3.73;;
870;SDS011;422;51.280;7.236;2023-10-31T11:52:59;9.03;;;4.80;;
870;SDS011;422;51.280;7.236;2023-10-31T11:55:31;5.73;;;3.37;;
870;SDS011;422;51.280;7.236;2023-10-31T11:58:11;8.00;;;4.00;;
870;SDS011;422;51.280;7.236;2023-10-31T12:00:41;7.13;;;3.90;;
870;SDS011;422;51.280;7.236;2023-10-31T12:03:09;9.20;;;3.97;;
870;SDS011;422;51.280;7.236;2023-10-31T12:05:36;6.20;;;3.80;;
870;SDS011;422;51.280;7.236;2023-10-31T12:08:04;4.50;;;3.57;;
870;SDS011;422;51.280;7.236;2023-10-31T12:10:31;6.90;;;4.27;;
870;SDS011;422;51.280;7.236;2023-10-31T12:12:58;4.60;;;3.40;;
870;SDS011;422;51.280;7.236;2023-10-31T12:15:26;5.80;;;3.87;;
870;SDS011;422;51.280;7.236;2023-10-31T12:17:58;4.80;;;3.57;;
870;SDS011;422;51.280;7.236;2023-10-31T12:20:26;5.90;;;3.67;;
870;SDS011;422;51.280;7.236;2023-10-31T12:23:02;5.93;;;3.70;;
870;SDS011;422;51.280;7.236;2023-10-31T12:25:30;4.93;;;3.80;;
870;SDS011;422;51.280;7.236;2023-10-31T12:28:00;4.20;;;3.47;;
870;SDS011;422;51.280;7.236;2023-10-31T12:30:27;5.07;;;3.50;;
870;SDS011;422;51.280;7.236;2023-10-31T12:32:55;4.87;;;3.80;;
870;SDS011;422;51.280;7.236;2023-10-31T12:35:25;5.00;;;3.93;;
870;SDS011;422;51.280;7.236;2023-10-31T12:37:52;6.67;;;3.80;;
870;SDS011;422;51.280;7.236;2023-10-31T12:40:22;5.43;;;3.60;;
870;SDS011;422;51.280;7.236;2023-10-31T12:42:50;4.73;;;3.73;;
870;SDS011;422;51.280;7.236;2023-10-31T12:45:18;4.90;;;3.80;;
870;SDS011;422;51.280;7.236;2023-10-31T12:47:59;7.60;;;3.50;;
870;SDS011;422;51.280;7.236;2023-10-31T12:50:29;6.00;;;3.90;;
870;SDS011;422;51.280;7.236;2023-10-31T12:52:56;5.90;;;3.10;;
870;SDS011;422;51.280;7.236;2023-10-31T12:55:24;5.03;;;4.00;;
870;SDS011;422;51.280;7.236;2023-10-31T12:57:53;5.83;;;3.40;;
870;SDS011;422;51.280;7.236;2023-10-31T13:00:22;4.80;;;3.50;;
870;SDS011;422;51.280;7.236;2023-10-31T13:02:58;5.63;;;3.77;;
870;SDS011;422;51.280;7.236;2023-10-31T13:05:27;5.00;;;3.53;;
870;SDS011;422;51.280;7.236;2023-10-31T13:07:56;4.00;;;3.03;;
870;SDS011;422;51.280;7.236;2023-10-31T13:10:25;4.70;;;3.10;;
870;SDS011;422;51.280;7.236;2023-10-31T13:12:54;3.63;;;2.80;;
870;SDS011;422;51.280;7.236;2023-10-31T13:15:22;3.83;;;3.00;;
870;SDS011;422;51.280;7.236;2023-10-31T13:17:51;6.30;;;3.30;;
870;SDS011;422;51.280;7.236;2023-10-31T13:20:19;5.30;;;3.40;;
870;SDS011;422;51.280;7.236;2023-10-31T13:22:48;5.80;;;3.10;;
870;SDS011;422;51.280;7.236;2023-10-31T13:25:16;5.67;;;3.00;;
870;SDS011;422;51.280;7.236;2023-10-31T13:27:43;6.30;;;3.13;;
870;SDS011;422;51.280;7.236;2023-10-31T13:30:15;4.70;;;3.23;;
870;SDS011;422;51.280;7.236;2023-10-31T13:32:43;3.30;;;2.83;;
870;SDS011;422;51.280;7.236;2023-10-31T13:35:11;5.30;;;3.07;;
870;SDS011;422;51.280;7.236;2023-10-31T13:37:39;4.23;;;3.10;;
870;SDS011;422;51.280;7.236;2023-10-31T13:40:08;4.20;;;3.03;;
870;SDS011;422;51.280;7.236;2023-10-31T13:42:36;4.63;;;2.70;;
870;SDS011;422;51.280;7.236;2023-10-31T13:45:05;4.90;;;3.50;;
870;SDS011;422;51.280;7.236;2023-10-31T13:47:33;5.63;;;3.70;;
870;SDS011;422;51.280;7.236;2023-10-31T13:50:00;4.63;;;3.53;;
870;SDS011;422;51.280;7.236;2023-10-31T13:52:27;5.57;;;3.63;;
870;SDS011;422;51.280;7.236;2023-10-31T13:54:54;6.67;;;3.10;;
870;SDS011;422;51.280;7.236;2023-10-31T13:57:23;5.03;;;3.00;;
870;SDS011;422;51.280;7.236;2023-10-31T13:59:50;6.47;;;3.20;;
870;SDS011;422;51.280;7.236;2023-10-31T14:02:18;3.20;;;2.53;;
870;SDS011;422;51.280;7.236;2023-10-31T14:04:46;4.70;;;2.70;;
870;SDS011;422;51.280;7.236;2023-10-31T14:07:13;6.13;;;3.27;;
870;SDS011;422;51.280;7.236;2023-10-31T14:09:47;4.97;;;3.27;;
870;SDS011;422;51.280;7.236;2023-10-31T14:12:14;3.60;;;2.80;;
870;SDS011;422;51.280;7.236;2023-10-31T14:14:43;4.70;;;2.63;;
870;SDS011;422;51.280;7.236;2023-10-31T14:17:13;4.33;;;3.20;;
870;SDS011;422;51.280;7.236;2023-10-31T14:19:41;5.53;;;2.83;;
870;SDS011;422;51.280;7.236;2023-10-31T14:22:09;5.97;;;2.90;;
870;SDS011;422;51.280;7.236;2023-10-31T14:24:38;7.87;;;3.13;;
870;SDS011;422;51.280;7.236;2023-10-31T14:27:05;4.87;;;2.90;;
870;SDS011;422;51.280;7.236;2023-10-31T14:29:33;4.63;;;2.60;;
870;SDS011;422;51.280;7.236;2023-10-31T14:32:06;3.70;;;2.67;;
870;SDS011;422;51.280;7.236;2023-10-31T14:34:34;3.50;;;2.47;;
870;SDS011;422;51.280;7.236;2023-10-31T14:37:01;5.73;;;2.83;;
870;SDS011;422;51.280;7.236;2023-10-31T14:39:28;5.83;;;3.20;;
870;SDS011;422;51.280;7.236;2023-10-31T14:41:56;4.70;;;2.70;;
870;SDS011;422;51.280;7.236;2023-10-31T14:44:23;7.37;;;2.97;;
870;SDS011;422;51.280;7.236;2023-10-31T14:46:50;3.90;;;2.23;;
870;SDS011;422;51.280;7.236;2023-10-31T14:49:20;7.30;;;2.70;;
870;SDS011;422;51.280;7.236;2023-10-31T14:51:47;4.80;;;2.73;;
870;SDS011;422;51.280;7.236;2023-10-31T14:54:14;5.07;;;2.60;;
870;SDS011;422;51.280;7.236;2023-10-31T14:56:41;6.10;;;3.10;;
870;SDS011;422;51.280;7.236;2023-10-31T14:59:09;6.40;;;2.70;;
870;SDS011;422;51.280;7.236;2023-10-31T15:01:36;6.50;;;2.77;;
870;SDS011;422;51.280;7.236;2023-10-31T15:04:03;3.97;;;2.20;;
870;SDS011;422;51.280;7.236;2023-10-31T15:06:32;3.30;;;2.70;;
870;SDS011;422;51.280;7.236;2023-10-31T15:09:00;5.13;;;2.60;;
870;SDS011;422;51.280;7.236;2023-10-31T15:11:28;6.27;;;2.90;;
870;SDS011;422;51.280;7.236;2023-10-31T15:13:55;4.63;;;2.90;;
870;SDS011;422;51.280;7.236;2023-10-31T15:16:22;4.37;;;2.70;;
870;SDS011;422;51.280;7.236;2023-10-31T15:18:50;4.97;;;2.80;;
870;SDS011;422;51.280;7.236;2023-10-31T15:21:17;4.97;;;3.10;;
870;SDS011;422;51.280;7.236;2023-10-31T15:23:46;5.70;;;3.23;;
870;SDS011;422;51.280;7.236;2023-10-31T15:26:14;9.50;;;3.33;;
870;SDS011;422;51.280;7.236;2023-10-31T15:28:41;5.80;;;2.67;;
870;SDS011;422;51.280;7.236;2023-10-31T15:31:08;8.10;;;3.50;;
870;SDS011;422;51.280;7.236;2023-10-31T15:33:35;5.27;;;3.13;;
870;SDS011;422;51.280;7.236;2023-10-31T15:36:04;9.00;;;3.30;;
870;SDS011;422;51.280;7.236;2023-10-31T15:38:35;6.20;;;3.43;;
870;SDS011;422;51.280;7.236;2023-10-31T15:41:04;4.30;;;3.53;;